sensor_id;sensor_type;location;lat;lon;timestamp;P1;durP1;ratioP1;P2;durP2;ratioP2
57093;SDS011;42970;50.996;3.706;2023-05-07T00:00:48;14.43;;;4.53;;
57093;SDS011;42970;50.996;3.706;2023-05-07T00:03:14;17.85;;;5.05;;
57093;SDS011;42970;50.996;3.706;2023-05-07T00:05:40;10.07;;;4.15;;
57093;SDS011;42970;50.996;3.706;2023-05-07T00:08:06;12.25;;;4.20;;
57093;SDS011;42970;50.996;3.706;2023-05-07T00:10:32;14.10;;;4.72;;
57093;SDS011;42970;50.996;3.706;2023-05-07T00:12:58;11.65;;;4.10;;
57093;SDS011;42970;50.996;3.706;2023-05-07T00:15:24;14.95;;;4.35;;
57093;SDS011;42970;50.996;3.706;2023-05-07T00:17:49;11.20;;;4.80;;
57093;SDS011;42970;50.996;3.706;2023-05-07T00:20:15;14.55;;;4.75;;
57093;SDS011;42970;50.996;3.706;2023-05-07T00:22:40;12.70;;;4.22;;
57093;SDS011;42970;50.996;3.706;2023-05-07T00:25:06;10.80;;;4.03;;
57093;SDS011;42970;50.996;3.706;2023-05-07T00:27:32;15.23;;;4.60;;
57093;SDS011;42970;50.996;3.706;2023-05-07T00:29:57;12.52;;;4.60;;
57093;SDS011;42970;50.996;3.706;2023-05-07T00:32:23;14.77;;;4.57;;
57093;SDS011;42970;50.996;3.706;2023-05-07T00:34:48;13.00;;;4.57;;
57093;SDS011;42970;50.996;3.706;2023-05-07T00:37:15;13.07;;;4.68;;
57093;SDS011;42970;50.996;3.706;2023-05-07T00:39:41;11.27;;;5.00;;
57093;SDS011;42970;50.996;3.706;2023-05-07T00:42:06;10.50;;;4.13;;
57093;SDS011;42970;50.996;3.706;2023-05-07T00:44:33;10.02;;;4.53;;
57093;SDS011;42970;50.996;3.706;2023-05-07T00:46:58;12.25;;;4.90;;
57093;SDS011;42970;50.996;3.706;2023-05-07T00:49:35;15.15;;;4.60;;
57093;SDS011;42970;50.996;3.706;2023-05-07T00:52:03;13.65;;;4.90;;
57093;SDS011;42970;50.996;3.706;2023-05-07T00:54:31;12.65;;;4.68;;
57093;SDS011;42970;50.996;3.706;2023-05-07T00:56:58;15.32;;;4.57;;
57093;SDS011;42970;50.996;3.706;2023-05-07T00:59:24;12.68;;;5.22;;
57093;SDS011;42970;50.996;3.706;2023-05-07T01:01:50;8.73;;;4.95;;
57093;SDS011;42970;50.996;3.706;2023-05-07T01:04:15;9.82;;;4.15;;
57093;SDS011;42970;50.996;3.706;2023-05-07T01:06:40;11.55;;;5.13;;
57093;SDS011;42970;50.996;3.706;2023-05-07T01:09:07;15.02;;;4.72;;
57093;SDS011;42970;50.996;3.706;2023-05-07T01:11:34;11.65;;;4.53;;
57093;SDS011;42970;50.996;3.706;2023-05-07T01:13:59;13.60;;;4.35;;
57093;SDS011;42970;50.996;3.706;2023-05-07T01:16:25;10.20;;;4.43;;
57093;SDS011;42970;50.996;3.706;2023-05-07T01:18:51;14.02;;;5.35;;
57093;SDS011;42970;50.996;3.706;2023-05-07T01:21:17;11.20;;;4.47;;
57093;SDS011;42970;50.996;3.706;2023-05-07T01:23:44;13.35;;;5.15;;
57093;SDS011;42970;50.996;3.706;2023-05-07T01:26:10;10.32;;;4.63;;
57093;SDS011;42970;50.996;3.706;2023-05-07T01:28:35;9.90;;;4.65;;
57093;SDS011;42970;50.996;3.706;2023-05-07T01:31:02;8.20;;;4.82;;
57093;SDS011;42970;50.996;3.706;2023-05-07T01:33:29;10.52;;;4.60;;
57093;SDS011;42970;50.996;3.706;2023-05-07T01:35:58;10.98;;;5.32;;
57093;SDS011;42970;50.996;3.706;2023-05-07T01:38:29;12.60;;;4.70;;
57093;SDS011;42970;50.996;3.706;2023-05-07T01:40:55;17.35;;;4.72;;
57093;SDS011;42970;50.996;3.706;2023-05-07T01:43:22;8.75;;;4.50;;
57093;SDS011;42970;50.996;3.706;2023-05-07T01:45:48;8.98;;;4.60;;
57093;SDS011;42970;50.996;3.706;2023-05-07T01:48:14;11.48;;;4.47;;
57093;SDS011;42970;50.996;3.706;2023-05-07T01:50:40;13.18;;;4.60;;
57093;SDS011;42970;50.996;3.706;2023-05-07T01:53:07;17.35;;;4.35;;
57093;SDS011;42970;50.996;3.706;2023-05-07T01:55:33;7.97;;;4.50;;
57093;SDS011;42970;50.996;3.706;2023-05-07T01:57:58;11.25;;;4.05;;
57093;SDS011;42970;50.996;3.706;2023-05-07T02:00:24;9.13;;;4.60;;
57093;SDS011;42970;50.996;3.706;2023-05-07T02:02:50;8.50;;;4.40;;
57093;SDS011;42970;50.996;3.706;2023-05-07T02:05:16;9.55;;;4.25;;
57093;SDS011;42970;50.996;3.706;2023-05-07T02:07:42;10.45;;;4.30;;
57093;SDS011;42970;50.996;3.706;2023-05-07T02:10:07;9.85;;;4.50;;
57093;SDS011;42970;50.996;3.706;2023-05-07T02:12:33;9.13;;;4.13;;
57093;SDS011;42970;50.996;3.706;2023-05-07T02:14:59;10.25;;;4.57;;
57093;SDS011;42970;50.996;3.706;2023-05-07T02:17:24;12.65;;;4.80;;
57093;SDS011;42970;50.996;3.706;2023-05-07T02:19:51;12.85;;;4.93;;
57093;SDS011;42970;50.996;3.706;2023-05-07T02:22:16;12.02;;;4.40;;
57093;SDS011;42970;50.996;3.706;2023-05-07T02:24:41;13.75;;;4.78;;
57093;SDS011;42970;50.996;3.706;2023-05-07T02:27:07;10.02;;;4.57;;
57093;SDS011;42970;50.996;3.706;2023-05-07T02:29:32;14.95;;;4.40;;
57093;SDS011;42970;50.996;3.706;2023-05-07T02:31:58;14.95;;;4.35;;
57093;SDS011;42970;50.996;3.706;2023-05-07T02:34:24;10.88;;;4.45;;
57093;SDS011;42970;50.996;3.706;2023-05-07T02:36:49;10.43;;;4.55;;
57093;SDS011;42970;50.996;3.706;2023-05-07T02:39:15;12.32;;;4.50;;
57093;SDS011;42970;50.996;3.706;2023-05-07T02:41:41;12.93;;;4.30;;
57093;SDS011;42970;50.996;3.706;2023-05-07T02:44:07;9.90;;;4.30;;
57093;SDS011;42970;50.996;3.706;2023-05-07T02:46:32;11.38;;;5.78;;
57093;SDS011;42970;50.996;3.706;2023-05-07T02:48:58;15.68;;;5.20;;
57093;SDS011;42970;50.996;3.706;2023-05-07T02:51:23;8.05;;;4.97;;
57093;SDS011;42970;50.996;3.706;2023-05-07T02:53:49;8.38;;;4.32;;
57093;SDS011;42970;50.996;3.706;2023-05-07T02:56:14;11.00;;;4.78;;
57093;SDS011;42970;50.996;3.706;2023-05-07T02:58:40;14.88;;;5.20;;
57093;SDS011;42970;50.996;3.706;2023-05-07T03:01:07;9.95;;;4.95;;
57093;SDS011;42970;50.996;3.706;2023-05-07T03:03:33;11.23;;;4.60;;
57093;SDS011;42970;50.996;3.706;2023-05-07T03:05:58;10.73;;;4.38;;
57093;SDS011;42970;50.996;3.706;2023-05-07T03:08:24;9.50;;;3.97;;
57093;SDS011;42970;50.996;3.706;2023-05-07T03:10:50;10.15;;;4.68;;
57093;SDS011;42970;50.996;3.706;2023-05-07T03:13:16;10.45;;;4.50;;
57093;SDS011;42970;50.996;3.706;2023-05-07T03:15:42;13.88;;;5.00;;
57093;SDS011;42970;50.996;3.706;2023-05-07T03:18:07;9.18;;;4.32;;
57093;SDS011;42970;50.996;3.706;2023-05-07T03:20:33;21.48;;;4.78;;
57093;SDS011;42970;50.996;3.706;2023-05-07T03:22:58;8.05;;;4.43;;
57093;SDS011;42970;50.996;3.706;2023-05-07T03:25:24;8.15;;;4.53;;
57093;SDS011;42970;50.996;3.706;2023-05-07T03:27:50;12.82;;;4.68;;
57093;SDS011;42970;50.996;3.706;2023-05-07T03:30:15;8.93;;;4.45;;
57093;SDS011;42970;50.996;3.706;2023-05-07T03:32:40;12.38;;;4.78;;
57093;SDS011;42970;50.996;3.706;2023-05-07T03:35:06;9.82;;;4.40;;
57093;SDS011;42970;50.996;3.706;2023-05-07T03:37:32;11.70;;;4.80;;
57093;SDS011;42970;50.996;3.706;2023-05-07T03:39:58;10.27;;;4.28;;
57093;SDS011;42970;50.996;3.706;2023-05-07T03:42:23;8.32;;;4.60;;
57093;SDS011;42970;50.996;3.706;2023-05-07T03:44:49;11.68;;;5.00;;
57093;SDS011;42970;50.996;3.706;2023-05-07T03:47:15;10.63;;;5.80;;
57093;SDS011;42970;50.996;3.706;2023-05-07T03:49:40;8.60;;;4.55;;
57093;SDS011;42970;50.996;3.706;2023-05-07T03:52:06;17.92;;;5.00;;
57093;SDS011;42970;50.996;3.706;2023-05-07T03:54:31;10.10;;;4.70;;
57093;SDS011;42970;50.996;3.706;2023-05-07T03:56:57;9.13;;;4.50;;
57093;SDS011;42970;50.996;3.706;2023-05-07T03:59:23;11.23;;;4.80;;
57093;SDS011;42970;50.996;3.706;2023-05-07T04:01:48;12.57;;;4.20;;
57093;SDS011;42970;50.996;3.706;2023-05-07T04:04:14;13.18;;;4.80;;
57093;SDS011;42970;50.996;3.706;2023-05-07T04:06:40;10.13;;;4.57;;
57093;SDS011;42970;50.996;3.706;2023-05-07T04:09:06;11.25;;;5.13;;
57093;SDS011;42970;50.996;3.706;2023-05-07T04:11:32;8.88;;;4.78;;
57093;SDS011;42970;50.996;3.706;2023-05-07T04:13:57;7.75;;;4.35;;
57093;SDS011;42970;50.996;3.706;2023-05-07T04:16:23;8.07;;;4.53;;
57093;SDS011;42970;50.996;3.706;2023-05-07T04:18:48;9.52;;;4.70;;
57093;SDS011;42970;50.996;3.706;2023-05-07T04:21:18;10.30;;;5.43;;
57093;SDS011;42970;50.996;3.706;2023-05-07T04:23:45;11.48;;;4.60;;
57093;SDS011;42970;50.996;3.706;2023-05-07T04:26:11;12.43;;;4.93;;
57093;SDS011;42970;50.996;3.706;2023-05-07T04:28:37;8.48;;;4.78;;
57093;SDS011;42970;50.996;3.706;2023-05-07T04:31:03;11.00;;;5.20;;
57093;SDS011;42970;50.996;3.706;2023-05-07T04:33:29;11.77;;;5.45;;
57093;SDS011;42970;50.996;3.706;2023-05-07T04:35:55;12.50;;;5.00;;
57093;SDS011;42970;50.996;3.706;2023-05-07T04:38:20;12.68;;;4.78;;
57093;SDS011;42970;50.996;3.706;2023-05-07T04:40:46;10.13;;;4.70;;
57093;SDS011;42970;50.996;3.706;2023-05-07T04:43:12;15.18;;;4.97;;
57093;SDS011;42970;50.996;3.706;2023-05-07T04:45:38;14.40;;;5.82;;
57093;SDS011;42970;50.996;3.706;2023-05-07T04:48:06;14.25;;;6.07;;
57093;SDS011;42970;50.996;3.706;2023-05-07T04:50:32;13.50;;;6.25;;
57093;SDS011;42970;50.996;3.706;2023-05-07T04:52:58;14.85;;;5.53;;
57093;SDS011;42970;50.996;3.706;2023-05-07T04:55:23;16.85;;;6.22;;
57093;SDS011;42970;50.996;3.706;2023-05-07T04:57:48;13.68;;;6.22;;
57093;SDS011;42970;50.996;3.706;2023-05-07T05:00:14;14.73;;;6.30;;
57093;SDS011;42970;50.996;3.706;2023-05-07T05:02:40;15.43;;;6.13;;
57093;SDS011;42970;50.996;3.706;2023-05-07T05:05:06;11.00;;;6.00;;
57093;SDS011;42970;50.996;3.706;2023-05-07T05:07:32;15.65;;;6.57;;
57093;SDS011;42970;50.996;3.706;2023-05-07T05:09:58;12.95;;;5.78;;
57093;SDS011;42970;50.996;3.706;2023-05-07T05:12:23;11.27;;;6.28;;
57093;SDS011;42970;50.996;3.706;2023-05-07T05:14:49;13.45;;;6.45;;
57093;SDS011;42970;50.996;3.706;2023-05-07T05:17:15;14.35;;;6.90;;
57093;SDS011;42970;50.996;3.706;2023-05-07T05:19:40;16.48;;;6.80;;
57093;SDS011;42970;50.996;3.706;2023-05-07T05:22:06;20.48;;;6.47;;
57093;SDS011;42970;50.996;3.706;2023-05-07T05:24:32;19.33;;;6.22;;
57093;SDS011;42970;50.996;3.706;2023-05-07T05:26:57;11.52;;;6.18;;
57093;SDS011;42970;50.996;3.706;2023-05-07T05:29:26;10.88;;;6.20;;
57093;SDS011;42970;50.996;3.706;2023-05-07T05:31:52;14.52;;;6.75;;
57093;SDS011;42970;50.996;3.706;2023-05-07T05:34:17;15.60;;;6.97;;
57093;SDS011;42970;50.996;3.706;2023-05-07T05:36:44;14.25;;;6.15;;
57093;SDS011;42970;50.996;3.706;2023-05-07T05:39:10;16.98;;;5.97;;
57093;SDS011;42970;50.996;3.706;2023-05-07T05:41:36;17.65;;;6.20;;
57093;SDS011;42970;50.996;3.706;2023-05-07T05:44:01;13.68;;;6.22;;
57093;SDS011;42970;50.996;3.706;2023-05-07T05:46:27;18.80;;;5.97;;
57093;SDS011;42970;50.996;3.706;2023-05-07T05:48:52;16.63;;;6.05;;
57093;SDS011;42970;50.996;3.706;2023-05-07T05:51:18;12.07;;;5.85;;
57093;SDS011;42970;50.996;3.706;2023-05-07T05:53:43;15.27;;;6.72;;
57093;SDS011;42970;50.996;3.706;2023-05-07T05:56:09;15.95;;;6.57;;
57093;SDS011;42970;50.996;3.706;2023-05-07T05:58:34;18.65;;;6.97;;
57093;SDS011;42970;50.996;3.706;2023-05-07T06:01:00;12.15;;;6.57;;
57093;SDS011;42970;50.996;3.706;2023-05-07T06:03:27;17.33;;;6.75;;
57093;SDS011;42970;50.996;3.706;2023-05-07T06:05:53;14.90;;;6.30;;
57093;SDS011;42970;50.996;3.706;2023-05-07T06:08:19;10.23;;;5.32;;
57093;SDS011;42970;50.996;3.706;2023-05-07T06:10:44;13.70;;;5.93;;
57093;SDS011;42970;50.996;3.706;2023-05-07T06:13:10;12.27;;;5.82;;
57093;SDS011;42970;50.996;3.706;2023-05-07T06:15:36;14.00;;;6.53;;
57093;SDS011;42970;50.996;3.706;2023-05-07T06:18:01;12.27;;;5.68;;
57093;SDS011;42970;50.996;3.706;2023-05-07T06:20:27;12.25;;;6.30;;
57093;SDS011;42970;50.996;3.706;2023-05-07T06:22:52;11.10;;;5.57;;
57093;SDS011;42970;50.996;3.706;2023-05-07T06:25:18;10.50;;;6.18;;
57093;SDS011;42970;50.996;3.706;2023-05-07T06:27:43;17.20;;;6.80;;
57093;SDS011;42970;50.996;3.706;2023-05-07T06:30:08;14.10;;;6.50;;
57093;SDS011;42970;50.996;3.706;2023-05-07T06:32:34;12.25;;;5.90;;
57093;SDS011;42970;50.996;3.706;2023-05-07T06:35:00;20.92;;;6.60;;
57093;SDS011;42970;50.996;3.706;2023-05-07T06:37:25;17.00;;;7.18;;
57093;SDS011;42970;50.996;3.706;2023-05-07T06:39:51;14.05;;;6.05;;
57093;SDS011;42970;50.996;3.706;2023-05-07T06:42:16;11.70;;;5.32;;
57093;SDS011;42970;50.996;3.706;2023-05-07T06:44:42;13.77;;;6.13;;
57093;SDS011;42970;50.996;3.706;2023-05-07T06:47:07;11.98;;;6.15;;
57093;SDS011;42970;50.996;3.706;2023-05-07T06:49:33;17.85;;;6.30;;
57093;SDS011;42970;50.996;3.706;2023-05-07T06:51:58;12.75;;;5.57;;
57093;SDS011;42970;50.996;3.706;2023-05-07T06:54:24;13.45;;;5.97;;
57093;SDS011;42970;50.996;3.706;2023-05-07T06:56:50;10.85;;;5.60;;
57093;SDS011;42970;50.996;3.706;2023-05-07T06:59:15;13.05;;;6.18;;
57093;SDS011;42970;50.996;3.706;2023-05-07T07:01:41;9.60;;;4.93;;
57093;SDS011;42970;50.996;3.706;2023-05-07T07:04:07;11.10;;;5.30;;
57093;SDS011;42970;50.996;3.706;2023-05-07T07:06:32;15.32;;;6.00;;
57093;SDS011;42970;50.996;3.706;2023-05-07T07:08:58;12.65;;;5.80;;
57093;SDS011;42970;50.996;3.706;2023-05-07T07:11:24;19.88;;;6.50;;
57093;SDS011;42970;50.996;3.706;2023-05-07T07:13:49;12.35;;;6.03;;
57093;SDS011;42970;50.996;3.706;2023-05-07T07:16:16;15.77;;;5.88;;
57093;SDS011;42970;50.996;3.706;2023-05-07T07:18:41;17.40;;;6.40;;
57093;SDS011;42970;50.996;3.706;2023-05-07T07:21:07;12.35;;;5.97;;
57093;SDS011;42970;50.996;3.706;2023-05-07T07:23:32;16.85;;;6.00;;
57093;SDS011;42970;50.996;3.706;2023-05-07T07:25:58;13.25;;;6.20;;
57093;SDS011;42970;50.996;3.706;2023-05-07T07:28:23;10.52;;;5.57;;
57093;SDS011;42970;50.996;3.706;2023-05-07T07:30:49;13.50;;;6.28;;
57093;SDS011;42970;50.996;3.706;2023-05-07T07:33:15;12.40;;;5.78;;
57093;SDS011;42970;50.996;3.706;2023-05-07T07:35:40;11.10;;;5.80;;
57093;SDS011;42970;50.996;3.706;2023-05-07T07:38:06;14.68;;;5.82;;
57093;SDS011;42970;50.996;3.706;2023-05-07T07:40:31;18.77;;;6.40;;
57093;SDS011;42970;50.996;3.706;2023-05-07T07:42:59;15.02;;;6.40;;
57093;SDS011;42970;50.996;3.706;2023-05-07T07:45:26;13.77;;;6.47;;
57093;SDS011;42970;50.996;3.706;2023-05-07T07:47:51;11.30;;;5.78;;
57093;SDS011;42970;50.996;3.706;2023-05-07T07:50:17;16.83;;;6.93;;
57093;SDS011;42970;50.996;3.706;2023-05-07T07:52:43;13.55;;;6.00;;
57093;SDS011;42970;50.996;3.706;2023-05-07T07:55:09;11.80;;;6.15;;
57093;SDS011;42970;50.996;3.706;2023-05-07T07:57:34;14.50;;;6.78;;
57093;SDS011;42970;50.996;3.706;2023-05-07T08:00:00;23.55;;;6.95;;
57093;SDS011;42970;50.996;3.706;2023-05-07T08:02:25;13.38;;;6.47;;
57093;SDS011;42970;50.996;3.706;2023-05-07T08:04:51;12.15;;;6.25;;
57093;SDS011;42970;50.996;3.706;2023-05-07T08:07:16;11.90;;;6.25;;
57093;SDS011;42970;50.996;3.706;2023-05-07T08:09:45;12.60;;;6.57;;
57093;SDS011;42970;50.996;3.706;2023-05-07T08:12:11;11.85;;;6.38;;
57093;SDS011;42970;50.996;3.706;2023-05-07T08:14:36;13.43;;;6.22;;
57093;SDS011;42970;50.996;3.706;2023-05-07T08:17:02;15.48;;;6.40;;
57093;SDS011;42970;50.996;3.706;2023-05-07T08:19:27;11.88;;;6.53;;
57093;SDS011;42970;50.996;3.706;2023-05-07T08:21:53;16.77;;;6.57;;
57093;SDS011;42970;50.996;3.706;2023-05-07T08:24:18;16.05;;;6.22;;
57093;SDS011;42970;50.996;3.706;2023-05-07T08:26:44;12.02;;;5.95;;
57093;SDS011;42970;50.996;3.706;2023-05-07T08:29:10;13.77;;;6.28;;
57093;SDS011;42970;50.996;3.706;2023-05-07T08:31:35;14.93;;;6.53;;
57093;SDS011;42970;50.996;3.706;2023-05-07T08:34:01;11.82;;;5.97;;
57093;SDS011;42970;50.996;3.706;2023-05-07T08:36:26;13.95;;;6.10;;
57093;SDS011;42970;50.996;3.706;2023-05-07T08:38:53;15.02;;;6.53;;
57093;SDS011;42970;50.996;3.706;2023-05-07T08:41:20;13.27;;;5.97;;
57093;SDS011;42970;50.996;3.706;2023-05-07T08:43:46;9.80;;;6.13;;
57093;SDS011;42970;50.996;3.706;2023-05-07T08:46:18;11.00;;;5.93;;
57093;SDS011;42970;50.996;3.706;2023-05-07T08:48:44;11.93;;;6.00;;
57093;SDS011;42970;50.996;3.706;2023-05-07T08:51:13;16.17;;;6.57;;
57093;SDS011;42970;50.996;3.706;2023-05-07T08:53:40;14.40;;;6.35;;
57093;SDS011;42970;50.996;3.706;2023-05-07T08:56:07;14.02;;;5.85;;
57093;SDS011;42970;50.996;3.706;2023-05-07T08:58:33;11.63;;;5.95;;
57093;SDS011;42970;50.996;3.706;2023-05-07T09:01:00;12.27;;;6.32;;
57093;SDS011;42970;50.996;3.706;2023-05-07T09:03:31;13.93;;;6.03;;
57093;SDS011;42970;50.996;3.706;2023-05-07T09:05:57;14.02;;;6.13;;
57093;SDS011;42970;50.996;3.706;2023-05-07T09:08:26;10.68;;;5.82;;
57093;SDS011;42970;50.996;3.706;2023-05-07T09:10:52;17.88;;;5.93;;
57093;SDS011;42970;50.996;3.706;2023-05-07T09:13:18;14.55;;;6.22;;
57093;SDS011;42970;50.996;3.706;2023-05-07T09:15:43;9.93;;;4.68;;
57093;SDS011;42970;50.996;3.706;2023-05-07T09:18:09;10.73;;;4.70;;
57093;SDS011;42970;50.996;3.706;2023-05-07T09:20:36;12.35;;;5.57;;
57093;SDS011;42970;50.996;3.706;2023-05-07T09:23:01;11.63;;;4.70;;
57093;SDS011;42970;50.996;3.706;2023-05-07T09:25:29;12.27;;;4.60;;
57093;SDS011;42970;50.996;3.706;2023-05-07T09:27:55;14.90;;;4.80;;
57093;SDS011;42970;50.996;3.706;2023-05-07T09:30:20;6.70;;;4.10;;
57093;SDS011;42970;50.996;3.706;2023-05-07T09:32:46;13.13;;;5.47;;
57093;SDS011;42970;50.996;3.706;2023-05-07T09:35:15;10.10;;;5.00;;
57093;SDS011;42970;50.996;3.706;2023-05-07T09:37:42;10.32;;;4.75;;
57093;SDS011;42970;50.996;3.706;2023-05-07T09:40:07;6.38;;;3.67;;
57093;SDS011;42970;50.996;3.706;2023-05-07T09:42:34;9.68;;;4.63;;
57093;SDS011;42970;50.996;3.706;2023-05-07T09:44:59;9.52;;;4.80;;
57093;SDS011;42970;50.996;3.706;2023-05-07T09:47:25;8.50;;;5.15;;
57093;SDS011;42970;50.996;3.706;2023-05-07T09:49:57;14.98;;;5.55;;
57093;SDS011;42970;50.996;3.706;2023-05-07T09:52:26;5.85;;;3.92;;
57093;SDS011;42970;50.996;3.706;2023-05-07T09:54:58;7.30;;;3.85;;
57093;SDS011;42970;50.996;3.706;2023-05-07T09:57:25;8.32;;;4.10;;
57093;SDS011;42970;50.996;3.706;2023-05-07T09:59:51;14.18;;;4.25;;
57093;SDS011;42970;50.996;3.706;2023-05-07T10:02:18;10.10;;;4.20;;
57093;SDS011;42970;50.996;3.706;2023-05-07T10:04:45;6.57;;;3.83;;
57093;SDS011;42970;50.996;3.706;2023-05-07T10:07:11;6.93;;;4.03;;
57093;SDS011;42970;50.996;3.706;2023-05-07T10:09:39;9.73;;;3.20;;
57093;SDS011;42970;50.996;3.706;2023-05-07T10:12:07;9.02;;;3.50;;
57093;SDS011;42970;50.996;3.706;2023-05-07T10:14:32;8.23;;;3.20;;
57093;SDS011;42970;50.996;3.706;2023-05-07T10:16:58;5.65;;;2.40;;
57093;SDS011;42970;50.996;3.706;2023-05-07T10:19:25;2.72;;;2.50;;
57093;SDS011;42970;50.996;3.706;2023-05-07T10:21:54;7.45;;;3.05;;
57093;SDS011;42970;50.996;3.706;2023-05-07T10:24:25;4.22;;;2.50;;
57093;SDS011;42970;50.996;3.706;2023-05-07T10:26:52;11.18;;;3.05;;
57093;SDS011;42970;50.996;3.706;2023-05-07T10:29:25;5.22;;;2.90;;
57093;SDS011;42970;50.996;3.706;2023-05-07T10:32:02;7.05;;;3.22;;
57093;SDS011;42970;50.996;3.706;2023-05-07T10:34:39;5.80;;;2.80;;
57093;SDS011;42970;50.996;3.706;2023-05-07T10:37:08;6.40;;;2.50;;
57093;SDS011;42970;50.996;3.706;2023-05-07T10:39:35;6.80;;;2.40;;
57093;SDS011;42970;50.996;3.706;2023-05-07T10:42:11;6.63;;;3.08;;
57093;SDS011;42970;50.996;3.706;2023-05-07T10:44:37;5.68;;;2.65;;
57093;SDS011;42970;50.996;3.706;2023-05-07T10:47:06;5.78;;;2.58;;
57093;SDS011;42970;50.996;3.706;2023-05-07T10:49:34;6.32;;;2.70;;
57093;SDS011;42970;50.996;3.706;2023-05-07T10:52:13;4.28;;;2.70;;
57093;SDS011;42970;50.996;3.706;2023-05-07T10:54:43;3.35;;;2.40;;
57093;SDS011;42970;50.996;3.706;2023-05-07T10:59:56;5.20;;;2.80;;
57093;SDS011;42970;50.996;3.706;2023-05-07T11:02:21;5.35;;;2.70;;
57093;SDS011;42970;50.996;3.706;2023-05-07T11:05:21;4.10;;;2.83;;
57093;SDS011;42970;50.996;3.706;2023-05-07T11:08:03;7.03;;;3.05;;
57093;SDS011;42970;50.996;3.706;2023-05-07T11:13:15;4.57;;;2.53;;
57093;SDS011;42970;50.996;3.706;2023-05-07T11:15:43;5.43;;;2.88;;
57093;SDS011;42970;50.996;3.706;2023-05-07T11:18:09;5.13;;;2.80;;
57093;SDS011;42970;50.996;3.706;2023-05-07T11:28:33;6.00;;;3.20;;
57093;SDS011;42970;50.996;3.706;2023-05-07T11:31:02;7.97;;;3.00;;
57093;SDS011;42970;50.996;3.706;2023-05-07T11:33:28;6.63;;;3.47;;
57093;SDS011;42970;50.996;3.706;2023-05-07T11:35:55;3.67;;;2.70;;
57093;SDS011;42970;50.996;3.706;2023-05-07T11:38:21;6.07;;;3.22;;
57093;SDS011;42970;50.996;3.706;2023-05-07T11:40:55;6.97;;;3.20;;
57093;SDS011;42970;50.996;3.706;2023-05-07T11:45:47;5.55;;;3.22;;
57093;SDS011;42970;50.996;3.706;2023-05-07T11:48:13;4.15;;;3.75;;
57093;SDS011;42970;50.996;3.706;2023-05-07T11:50:53;26.88;;;4.72;;
57093;SDS011;42970;50.996;3.706;2023-05-07T11:53:20;5.47;;;3.97;;
57093;SDS011;42970;50.996;3.706;2023-05-07T11:55:51;5.88;;;3.97;;
57093;SDS011;42970;50.996;3.706;2023-05-07T11:58:20;8.50;;;4.40;;
57093;SDS011;42970;50.996;3.706;2023-05-07T12:00:52;6.00;;;4.40;;
57093;SDS011;42970;50.996;3.706;2023-05-07T12:03:19;6.35;;;4.10;;
57093;SDS011;42970;50.996;3.706;2023-05-07T12:05:45;7.22;;;4.13;;
57093;SDS011;42970;50.996;3.706;2023-05-07T12:08:17;6.82;;;3.70;;
57093;SDS011;42970;50.996;3.706;2023-05-07T12:10:44;5.82;;;3.92;;
57093;SDS011;42970;50.996;3.706;2023-05-07T12:13:19;5.97;;;3.40;;
57093;SDS011;42970;50.996;3.706;2023-05-07T12:15:44;6.15;;;4.03;;
57093;SDS011;42970;50.996;3.706;2023-05-07T12:18:11;10.55;;;4.25;;
57093;SDS011;42970;50.996;3.706;2023-05-07T12:20:37;5.70;;;3.80;;
57093;SDS011;42970;50.996;3.706;2023-05-07T12:23:03;7.18;;;3.30;;
57093;SDS011;42970;50.996;3.706;2023-05-07T12:25:34;11.15;;;3.70;;
57093;SDS011;42970;50.996;3.706;2023-05-07T12:28:04;6.10;;;3.45;;
57093;SDS011;42970;50.996;3.706;2023-05-07T12:30:31;5.30;;;3.70;;
57093;SDS011;42970;50.996;3.706;2023-05-07T12:32:57;5.75;;;3.65;;
57093;SDS011;42970;50.996;3.706;2023-05-07T12:35:29;5.88;;;3.80;;
57093;SDS011;42970;50.996;3.706;2023-05-07T12:38:07;10.27;;;4.10;;
57093;SDS011;42970;50.996;3.706;2023-05-07T12:40:36;9.20;;;4.00;;
57093;SDS011;42970;50.996;3.706;2023-05-07T12:43:03;4.07;;;2.80;;
57093;SDS011;42970;50.996;3.706;2023-05-07T12:45:29;3.85;;;2.40;;
57093;SDS011;42970;50.996;3.706;2023-05-07T12:47:54;7.35;;;3.67;;
57093;SDS011;42970;50.996;3.706;2023-05-07T12:50:20;3.80;;;2.53;;
57093;SDS011;42970;50.996;3.706;2023-05-07T12:52:48;2.85;;;2.35;;
57093;SDS011;42970;50.996;3.706;2023-05-07T12:55:14;3.60;;;3.03;;
57093;SDS011;42970;50.996;3.706;2023-05-07T12:58:00;3.20;;;2.90;;
57093;SDS011;42970;50.996;3.706;2023-05-07T13:00:36;4.88;;;3.13;;
57093;SDS011;42970;50.996;3.706;2023-05-07T13:03:02;6.78;;;3.60;;
57093;SDS011;42970;50.996;3.706;2023-05-07T13:05:28;8.23;;;3.58;;
57093;SDS011;42970;50.996;3.706;2023-05-07T13:07:54;8.30;;;3.35;;
57093;SDS011;42970;50.996;3.706;2023-05-07T13:10:21;7.00;;;3.78;;
57093;SDS011;42970;50.996;3.706;2023-05-07T13:12:47;6.40;;;3.90;;
57093;SDS011;42970;50.996;3.706;2023-05-07T13:15:13;8.95;;;4.22;;
57093;SDS011;42970;50.996;3.706;2023-05-07T13:17:38;6.28;;;3.67;;
57093;SDS011;42970;50.996;3.706;2023-05-07T13:20:04;6.28;;;3.97;;
57093;SDS011;42970;50.996;3.706;2023-05-07T13:22:31;6.93;;;3.60;;
57093;SDS011;42970;50.996;3.706;2023-05-07T13:24:57;6.25;;;3.53;;
57093;SDS011;42970;50.996;3.706;2023-05-07T13:27:22;5.80;;;3.35;;
57093;SDS011;42970;50.996;3.706;2023-05-07T13:29:47;6.47;;;3.50;;
57093;SDS011;42970;50.996;3.706;2023-05-07T13:32:13;5.10;;;4.03;;
57093;SDS011;42970;50.996;3.706;2023-05-07T13:34:38;5.30;;;3.75;;
57093;SDS011;42970;50.996;3.706;2023-05-07T13:37:03;11.80;;;4.55;;
57093;SDS011;42970;50.996;3.706;2023-05-07T13:39:29;6.15;;;4.35;;
57093;SDS011;42970;50.996;3.706;2023-05-07T13:41:54;6.85;;;4.20;;
57093;SDS011;42970;50.996;3.706;2023-05-07T13:44:20;5.80;;;3.80;;
57093;SDS011;42970;50.996;3.706;2023-05-07T13:46:45;5.70;;;3.78;;
57093;SDS011;42970;50.996;3.706;2023-05-07T13:49:11;5.28;;;4.03;;
57093;SDS011;42970;50.996;3.706;2023-05-07T13:51:37;8.85;;;4.60;;
57093;SDS011;42970;50.996;3.706;2023-05-07T13:54:03;9.35;;;4.63;;
57093;SDS011;42970;50.996;3.706;2023-05-07T13:56:29;7.50;;;4.32;;
57093;SDS011;42970;50.996;3.706;2023-05-07T13:58:57;7.15;;;4.53;;
57093;SDS011;42970;50.996;3.706;2023-05-07T14:01:22;12.07;;;5.22;;
57093;SDS011;42970;50.996;3.706;2023-05-07T14:03:47;6.05;;;4.00;;
57093;SDS011;42970;50.996;3.706;2023-05-07T14:06:13;7.82;;;3.83;;
57093;SDS011;42970;50.996;3.706;2023-05-07T14:08:38;7.65;;;3.50;;
57093;SDS011;42970;50.996;3.706;2023-05-07T14:11:04;5.32;;;3.40;;
57093;SDS011;42970;50.996;3.706;2023-05-07T14:13:29;5.05;;;3.20;;
57093;SDS011;42970;50.996;3.706;2023-05-07T14:15:56;6.47;;;2.80;;
57093;SDS011;42970;50.996;3.706;2023-05-07T14:18:21;6.88;;;3.40;;
57093;SDS011;42970;50.996;3.706;2023-05-07T14:20:47;3.15;;;2.70;;
57093;SDS011;42970;50.996;3.706;2023-05-07T14:23:14;4.13;;;2.63;;
57093;SDS011;42970;50.996;3.706;2023-05-07T14:25:39;5.22;;;3.55;;
57093;SDS011;42970;50.996;3.706;2023-05-07T14:28:06;7.03;;;5.03;;
57093;SDS011;42970;50.996;3.706;2023-05-07T14:30:31;12.35;;;6.43;;
57093;SDS011;42970;50.996;3.706;2023-05-07T14:32:57;8.52;;;6.55;;
57093;SDS011;42970;50.996;3.706;2023-05-07T14:35:22;10.55;;;7.90;;
57093;SDS011;42970;50.996;3.706;2023-05-07T14:37:48;12.07;;;7.15;;
57093;SDS011;42970;50.996;3.706;2023-05-07T14:40:13;8.82;;;6.15;;
57093;SDS011;42970;50.996;3.706;2023-05-07T14:42:39;13.43;;;7.90;;
57093;SDS011;42970;50.996;3.706;2023-05-07T14:45:05;14.25;;;8.23;;
57093;SDS011;42970;50.996;3.706;2023-05-07T14:47:31;17.30;;;8.25;;
57093;SDS011;42970;50.996;3.706;2023-05-07T14:49:56;16.05;;;8.57;;
57093;SDS011;42970;50.996;3.706;2023-05-07T14:52:23;13.38;;;8.48;;